Time;durP1;ratioP1;P1;durP2;ratioP2;P2;SDS_P1;SDS_P2;PMS_P1;PMS_P2;Temp;Humidity;BMP_temperature;BMP_pressure;BME280_temperature;BME280_humidity;BME280_pressure;Samples;Min_cycle;Max_cycle;Signal;HPM_P1;HPM_P2
2023/05/06 00:00:24;;;;;;;19.63;5.93;;;;;;;;;;5070913;28;20063;-66
2023/05/06 00:02:50;;;;;;;20.88;5.32;;;;;;;;;;5061009;28;20079;-66
2023/05/06 00:05:17;;;;;;;19.95;5.68;;;;;;;;;;5071431;28;20048;-66
2023/05/06 00:07:45;;;;;;;19.27;5.85;;;;;;;;;;5059323;28;20124;-66
2023/05/06 00:10:11;;;;;;;;;;;;;;;;;;5071524;28;20041;-66
2023/05/06 00:12:37;;;;;;;17.52;4.68;;;;;;;;;;5057768;28;19927;-66
2023/05/06 00:15:04;;;;;;;14.45;4.60;;;;;;;;;;5071291;28;20131;-66
2023/05/06 00:17:31;;;;;;;20.10;5.03;;;;;;;;;;5061453;28;20139;-66
2023/05/06 00:19:57;;;;;;;17.58;5.10;;;;;;;;;;5070820;28;20605;-66
2023/05/06 00:22:24;;;;;;;19.40;5.00;;;;;;;;;;5054302;28;20104;-66
2023/05/06 00:24:50;;;;;;;18.50;5.38;;;;;;;;;;5071303;28;20045;-66
2023/05/06 00:27:16;;;;;;;14.43;4.47;;;;;;;;;;5061231;28;20055;-66
2023/05/06 00:29:43;;;;;;;18.42;5.68;;;;;;;;;;5070879;28;20057;-66
2023/05/06 00:32:09;;;;;;;15.00;5.20;;;;;;;;;;5052781;28;20140;-66
2023/05/06 00:34:36;;;;;;;20.88;5.28;;;;;;;;;;5070066;28;20045;-66
2023/05/06 00:37:03;;;;;;;19.55;5.25;;;;;;;;;;5054471;28;20057;-66
2023/05/06 00:39:29;;;;;;;20.65;4.82;;;;;;;;;;5065311;28;20140;-66
2023/05/06 00:42:01;;;;;;;18.60;5.43;;;;;;;;;;5070901;28;20052;-66
2023/05/06 00:44:28;;;;;;;23.23;5.32;;;;;;;;;;5070907;28;20094;-66
2023/05/06 00:46:55;;;;;;;23.20;5.90;;;;;;;;;;5071205;28;20464;-66
2023/05/06 00:49:22;;;;;;;19.65;5.18;;;;;;;;;;5071213;28;20050;-66
2023/05/06 00:51:50;;;;;;;24.17;5.95;;;;;;;;;;5070809;28;20062;-66
2023/05/06 00:54:17;;;;;;;20.20;5.80;;;;;;;;;;5072403;28;20045;-66
2023/05/06 00:56:43;;;;;;;20.77;5.35;;;;;;;;;;5074599;28;20062;-66
2023/05/06 00:59:10;;;;;;;19.15;5.65;;;;;;;;;;5074339;28;20128;-66
2023/05/06 01:01:36;;;;;;;18.42;4.93;;;;;;;;;;5074258;28;20052;-66
2023/05/06 01:04:03;;;;;;;17.73;5.03;;;;;;;;;;5074330;28;20128;-66
2023/05/06 01:06:48;;;;;;;17.67;5.10;;;;;;;;;;5074516;28;20411;-66
2023/05/06 01:09:18;;;;;;;18.30;4.65;;;;;;;;;;5074198;28;20041;-66
2023/05/06 01:11:49;;;;;;;14.95;4.57;;;;;;;;;;5074481;28;20044;-66
2023/05/06 01:14:19;;;;;;;15.35;5.03;;;;;;;;;;5074071;28;20495;-66
2023/05/06 01:16:46;;;;;;;18.77;4.80;;;;;;;;;;5074207;28;20057;-66
2023/05/06 01:19:27;;;;;;;18.70;4.88;;;;;;;;;;5074264;28;20074;-66
2023/05/06 01:21:55;;;;;;;17.60;5.63;;;;;;;;;;5073862;28;20465;-66
2023/05/06 01:24:32;;;;;;;17.13;5.32;;;;;;;;;;5074159;28;20045;-66
2023/05/06 01:26:59;;;;;;;18.00;5.18;;;;;;;;;;5073866;28;20488;-66
2023/05/06 01:29:25;;;;;;;11.48;4.90;;;;;;;;;;5073785;28;20051;-66
2023/05/06 01:31:53;;;;;;;17.33;5.10;;;;;;;;;;5074080;28;20060;-66
2023/05/06 01:34:24;;;;;;;21.15;5.70;;;;;;;;;;5073609;28;20048;-66
2023/05/06 01:37:03;;;;;;;14.80;5.20;;;;;;;;;;5072996;28;20052;-66
2023/05/06 01:39:30;;;;;;;18.48;5.85;;;;;;;;;;5073441;28;20048;-66
2023/05/06 01:41:59;;;;;;;14.77;5.72;;;;;;;;;;5073371;28;20054;-66
2023/05/06 01:44:26;;;;;;;21.80;6.68;;;;;;;;;;5073871;28;20123;-66
2023/05/06 01:46:53;;;;;;;24.25;7.00;;;;;;;;;;5073690;28;20091;-66
2023/05/06 01:49:21;;;;;;;23.77;7.50;;;;;;;;;;5073757;28;20048;-66
2023/05/06 01:51:48;;;;;;;21.85;7.80;;;;;;;;;;5073705;28;20143;-66
2023/05/06 01:54:14;;;;;;;17.80;6.75;;;;;;;;;;5073581;28;20379;-66
2023/05/06 01:56:41;;;;;;;23.33;6.97;;;;;;;;;;5073363;28;20052;-66
2023/05/06 01:59:07;;;;;;;17.92;6.93;;;;;;;;;;5073256;28;20111;-66
2023/05/06 02:01:33;;;;;;;21.70;7.07;;;;;;;;;;5072999;28;20052;-66
2023/05/06 02:04:00;;;;;;;18.25;6.97;;;;;;;;;;5072916;28;20037;-66
2023/05/06 02:06:26;;;;;;;21.67;7.35;;;;;;;;;;5072506;28;20127;-66
2023/05/06 02:08:53;;;;;;;18.17;6.70;;;;;;;;;;5066883;28;20052;-66
2023/05/06 02:11:19;;;;;;;18.65;7.22;;;;;;;;;;5073194;28;20044;-66
2023/05/06 02:13:46;;;;;;;18.10;7.35;;;;;;;;;;5072897;28;20492;-66
2023/05/06 02:16:12;;;;;;;17.25;7.05;;;;;;;;;;5072911;28;20859;-66
2023/05/06 02:18:38;;;;;;;20.40;6.55;;;;;;;;;;5072803;28;20522;-66
2023/05/06 02:21:05;;;;;;;19.05;6.82;;;;;;;;;;5072906;28;20502;-66
2023/05/06 02:23:31;;;;;;;20.52;7.97;;;;;;;;;;5072953;28;20417;-66
2023/05/06 02:25:58;;;;;;;17.40;7.50;;;;;;;;;;5072655;28;20097;-66
2023/05/06 02:28:24;;;;;;;18.58;7.28;;;;;;;;;;5072607;28;20052;-66
2023/05/06 02:30:55;;;;;;;18.33;6.22;;;;;;;;;;5072535;28;20131;-66
2023/05/06 02:33:21;;;;;;;17.75;6.28;;;;;;;;;;5072629;28;20472;-66
2023/05/06 02:35:48;;;;;;;16.92;6.70;;;;;;;;;;5072463;28;20058;-66
2023/05/06 02:38:14;;;;;;;17.00;6.63;;;;;;;;;;5072482;28;20559;-66
2023/05/06 02:40:40;;;;;;;17.73;6.93;;;;;;;;;;5072447;28;20531;-66
2023/05/06 02:43:07;;;;;;;12.98;6.22;;;;;;;;;;5072118;28;20420;-66
2023/05/06 02:45:33;;;;;;;18.52;7.38;;;;;;;;;;5072607;28;20171;-66
2023/05/06 02:48:00;;;;;;;21.85;7.88;;;;;;;;;;5072177;28;20549;-66
2023/05/06 02:50:26;;;;;;;21.13;7.60;;;;;;;;;;5072550;28;20083;-66
2023/05/06 02:52:52;;;;;;;20.02;8.57;;;;;;;;;;5072168;28;20135;-66
2023/05/06 02:55:19;;;;;;;15.18;7.25;;;;;;;;;;5072150;28;20046;-66
2023/05/06 02:57:45;;;;;;;16.73;8.02;;;;;;;;;;5072079;28;20055;-66
2023/05/06 03:00:14;;;;;;;17.50;6.97;;;;;;;;;;5072098;28;20415;-66
2023/05/06 03:02:40;;;;;;;18.75;7.55;;;;;;;;;;5072357;28;20376;-66
2023/05/06 03:05:07;;;;;;;14.68;7.38;;;;;;;;;;5071874;28;20548;-66
2023/05/06 03:07:34;;;;;;;18.65;6.97;;;;;;;;;;5072082;28;20052;-66
2023/05/06 03:10:01;;;;;;;15.93;6.80;;;;;;;;;;5072234;28;20051;-66
2023/05/06 03:12:27;;;;;;;17.65;7.28;;;;;;;;;;5071914;28;20424;-66
2023/05/06 03:14:53;;;;;;;18.38;7.45;;;;;;;;;;5071990;28;20513;-66
2023/05/06 03:17:20;;;;;;;17.90;7.32;;;;;;;;;;5071577;28;20170;-66
2023/05/06 03:19:48;;;;;;;17.60;8.65;;;;;;;;;;5072056;28;20048;-66
2023/05/06 03:22:14;;;;;;;17.05;7.70;;;;;;;;;;5071631;28;20045;-66
2023/05/06 03:24:41;;;;;;;18.27;7.50;;;;;;;;;;5072187;28;20045;-66
2023/05/06 03:27:07;;;;;;;21.55;8.57;;;;;;;;;;5071864;28;20051;-66
2023/05/06 03:29:33;;;;;;;20.52;7.88;;;;;;;;;;5071676;28;20053;-66
2023/05/06 03:32:03;;;;;;;19.58;7.57;;;;;;;;;;5071867;28;20055;-66
2023/05/06 03:34:30;;;;;;;23.10;9.00;;;;;;;;;;5071945;28;20044;-66
2023/05/06 03:36:56;;;;;;;18.13;8.23;;;;;;;;;;5071915;28;20052;-66
2023/05/06 03:39:23;;;;;;;22.90;8.93;;;;;;;;;;5071463;28;20040;-66
2023/05/06 03:41:49;;;;;;;19.80;8.23;;;;;;;;;;5072014;28;20123;-66
2023/05/06 03:44:16;;;;;;;27.65;9.45;;;;;;;;;;5071836;28;20076;-66
2023/05/06 03:46:42;;;;;;;22.23;8.20;;;;;;;;;;5071800;28;20051;-66
2023/05/06 03:49:09;;;;;;;24.98;8.95;;;;;;;;;;5071711;28;20048;-66
2023/05/06 03:51:35;;;;;;;19.33;8.65;;;;;;;;;;5071615;28;20040;-66
2023/05/06 03:54:02;;;;;;;20.38;8.07;;;;;;;;;;5071382;28;20048;-66
2023/05/06 03:56:28;;;;;;;23.13;9.25;;;;;;;;;;5071425;28;20048;-66
2023/05/06 03:58:55;;;;;;;21.45;8.18;;;;;;;;;;5071384;28;20514;-66
2023/05/06 04:01:21;;;;;;;20.98;9.05;;;;;;;;;;5071228;28;20054;-66
2023/05/06 04:03:47;;;;;;;26.77;9.95;;;;;;;;;;5071222;28;20112;-66
2023/05/06 04:06:14;;;;;;;27.63;10.77;;;;;;;;;;5071285;28;20048;-66
2023/05/06 04:08:40;;;;;;;26.75;9.90;;;;;;;;;;5071521;28;20054;-66
2023/05/06 04:11:07;;;;;;;32.47;9.50;;;;;;;;;;5071456;28;20052;-66
2023/05/06 04:13:34;;;;;;;25.27;9.38;;;;;;;;;;5070406;28;20106;-66
2023/05/06 04:16:00;;;;;;;31.10;10.10;;;;;;;;;;5070237;28;20049;-66
2023/05/06 04:18:27;;;;;;;26.55;10.45;;;;;;;;;;5071040;28;20053;-66
2023/05/06 04:20:53;;;;;;;26.10;9.63;;;;;;;;;;5071443;28;20067;-66
2023/05/06 04:23:20;;;;;;;22.75;9.68;;;;;;;;;;5071627;28;20094;-66
2023/05/06 04:25:49;;;;;;;22.83;9.50;;;;;;;;;;5071136;28;20127;-66
2023/05/06 04:28:16;;;;;;;22.63;8.93;;;;;;;;;;5071393;28;20051;-66
2023/05/06 04:30:43;;;;;;;19.95;9.10;;;;;;;;;;5074920;28;20044;-66
2023/05/06 04:33:10;;;;;;;20.77;8.32;;;;;;;;;;5074978;28;20137;-66
2023/05/06 04:35:37;;;;;;;23.10;9.07;;;;;;;;;;5074789;28;20052;-66
2023/05/06 04:38:03;;;;;;;19.15;7.85;;;;;;;;;;5074930;28;20053;-66
2023/05/06 04:40:29;;;;;;;15.85;7.78;;;;;;;;;;5074963;28;20052;-66
2023/05/06 04:42:56;;;;;;;15.65;7.40;;;;;;;;;;5074758;28;20044;-66
2023/05/06 04:45:23;;;;;;;15.77;7.72;;;;;;;;;;5074822;28;20037;-66
2023/05/06 04:47:49;;;;;;;18.50;7.18;;;;;;;;;;5074701;28;20048;-66
2023/05/06 04:50:16;;;;;;;12.52;6.32;;;;;;;;;;5075164;28;20052;-66
2023/05/06 04:52:42;;;;;;;13.23;6.25;;;;;;;;;;5074785;28;20037;-66
2023/05/06 04:55:09;;;;;;;16.05;5.75;;;;;;;;;;5074929;28;20051;-66
2023/05/06 04:57:36;;;;;;;16.02;6.70;;;;;;;;;;5074891;28;20123;-66
2023/05/06 05:00:03;;;;;;;14.35;6.20;;;;;;;;;;5074499;28;20223;-66
2023/05/06 05:02:30;;;;;;;16.42;6.07;;;;;;;;;;5074633;28;20385;-66
2023/05/06 05:04:56;;;;;;;16.92;7.00;;;;;;;;;;5074504;28;20037;-66
2023/05/06 05:07:22;;;;;;;15.02;6.90;;;;;;;;;;5074704;28;20041;-66
2023/05/06 05:09:49;;;;;;;15.65;6.53;;;;;;;;;;5074415;28;20037;-66
2023/05/06 05:12:15;;;;;;;16.02;6.63;;;;;;;;;;5074160;28;20044;-66
2023/05/06 05:14:41;;;;;;;16.50;7.72;;;;;;;;;;5074170;28;20113;-66
2023/05/06 05:17:08;;;;;;;17.45;7.97;;;;;;;;;;5074059;28;20048;-66
2023/05/06 05:19:34;;;;;;;16.73;8.30;;;;;;;;;;5074018;28;20128;-67
2023/05/06 05:22:01;;;;;;;17.42;9.13;;;;;;;;;;5074181;28;20377;-66
2023/05/06 05:24:27;;;;;;;16.75;8.73;;;;;;;;;;5074166;28;20400;-66
2023/05/06 05:26:53;;;;;;;19.27;9.80;;;;;;;;;;5073977;28;20411;-66
2023/05/06 05:29:20;;;;;;;19.30;9.70;;;;;;;;;;5073824;28;20480;-66
2023/05/06 05:31:46;;;;;;;21.67;9.82;;;;;;;;;;5073834;28;20048;-66
2023/05/06 05:34:13;;;;;;;17.88;9.45;;;;;;;;;;5073691;28;20052;-66
2023/05/06 05:36:39;;;;;;;19.45;8.45;;;;;;;;;;5073882;28;20508;-66
2023/05/06 05:39:05;;;;;;;16.35;7.32;;;;;;;;;;5073527;28;20159;-66
2023/05/06 05:41:32;;;;;;;20.98;6.70;;;;;;;;;;5073918;28;20048;-66
2023/05/06 05:43:58;;;;;;;10.57;4.78;;;;;;;;;;5073454;28;20056;-66
2023/05/06 05:46:25;;;;;;;10.57;5.25;;;;;;;;;;5073795;28;20044;-66
2023/05/06 05:48:51;;;;;;;11.13;5.57;;;;;;;;;;5072556;28;20123;-66
2023/05/06 05:51:17;;;;;;;11.80;5.13;;;;;;;;;;5073434;28;20131;-66
2023/05/06 05:53:44;;;;;;;14.77;6.57;;;;;;;;;;5073723;28;20058;-66
2023/05/06 05:56:10;;;;;;;12.82;6.30;;;;;;;;;;5073312;28;20106;-66
2023/05/06 05:58:37;;;;;;;13.13;5.90;;;;;;;;;;5073268;28;20079;-66
2023/05/06 06:01:04;;;;;;;13.65;6.82;;;;;;;;;;5073015;28;20052;-66
2023/05/06 06:03:30;;;;;;;15.25;6.53;;;;;;;;;;5073163;28;20508;-66
2023/05/06 06:05:57;;;;;;;11.77;6.38;;;;;;;;;;5073308;28;20135;-66
2023/05/06 06:08:23;;;;;;;15.23;6.32;;;;;;;;;;5073306;28;20399;-66
2023/05/06 06:10:50;;;;;;;11.93;5.65;;;;;;;;;;5073392;28;20377;-66
2023/05/06 06:13:16;;;;;;;13.55;5.70;;;;;;;;;;5073283;28;20134;-66
2023/05/06 06:15:42;;;;;;;13.15;5.10;;;;;;;;;;5073089;28;20549;-66
2023/05/06 06:18:09;;;;;;;12.32;4.90;;;;;;;;;;5072741;28;20052;-66
2023/05/06 06:20:35;;;;;;;12.40;4.57;;;;;;;;;;5073213;28;20121;-66
2023/05/06 06:23:02;;;;;;;13.88;4.57;;;;;;;;;;5072857;28;20049;-66
2023/05/06 06:25:28;;;;;;;12.55;4.63;;;;;;;;;;5072735;28;20618;-66
2023/05/06 06:27:55;;;;;;;10.40;4.70;;;;;;;;;;5072656;28;20555;-66
2023/05/06 06:30:21;;;;;;;10.57;4.23;;;;;;;;;;5072835;28;20058;-66
2023/05/06 06:32:49;;;;;;;11.77;3.60;;;;;;;;;;5073093;28;20051;-66
2023/05/06 06:35:15;;;;;;;11.32;4.20;;;;;;;;;;5072732;28;20056;-66
2023/05/06 06:37:42;;;;;;;13.75;4.10;;;;;;;;;;5072621;28;20053;-66
2023/05/06 06:40:09;;;;;;;12.52;4.30;;;;;;;;;;5072444;28;20492;-66
2023/05/06 06:42:35;;;;;;;14.38;4.82;;;;;;;;;;5072297;28;20053;-66
2023/05/06 06:45:03;;;;;;;11.95;4.57;;;;;;;;;;5072552;28;20059;-66
2023/05/06 06:47:29;;;;;;;11.45;3.75;;;;;;;;;;5072586;28;20051;-66
2023/05/06 06:49:56;;;;;;;15.00;4.80;;;;;;;;;;5072584;28;20049;-66
2023/05/06 06:52:22;;;;;;;17.30;4.00;;;;;;;;;;5071885;28;20071;-67
2023/05/06 06:54:49;;;;;;;15.68;4.30;;;;;;;;;;5071440;28;20048;-67
2023/05/06 06:57:15;;;;;;;20.77;5.00;;;;;;;;;;5072097;28;20061;-68
2023/05/06 06:59:41;;;;;;;33.38;6.60;;;;;;;;;;5072343;28;20139;-68
2023/05/06 07:02:08;;;;;;;13.63;4.82;;;;;;;;;;5072118;28;20053;-68
2023/05/06 07:04:34;;;;;;;21.63;5.78;;;;;;;;;;5071853;28;20044;-67
2023/05/06 07:07:01;;;;;;;21.95;5.93;;;;;;;;;;5071999;28;20040;-67
2023/05/06 07:09:27;;;;;;;12.40;4.78;;;;;;;;;;5072224;28;20047;-68
2023/05/06 07:11:53;;;;;;;19.48;5.20;;;;;;;;;;5071882;28;20053;-68
2023/05/06 07:14:20;;;;;;;17.30;5.43;;;;;;;;;;5071947;28;20056;-68
2023/05/06 07:16:46;;;;;;;23.73;5.05;;;;;;;;;;5071991;28;20484;-67
2023/05/06 07:19:16;;;;;;;26.42;5.40;;;;;;;;;;5072139;28;20131;-67
2023/05/06 07:21:42;;;;;;;18.25;4.28;;;;;;;;;;5072107;28;20071;-67
2023/05/06 07:24:08;;;;;;;12.27;4.43;;;;;;;;;;5071575;28;20135;-67
2023/05/06 07:26:35;;;;;;;13.73;4.93;;;;;;;;;;5071726;28;20095;-68
2023/05/06 07:29:03;;;;;;;17.30;5.23;;;;;;;;;;5071972;28;20083;-68
2023/05/06 07:31:32;;;;;;;9.38;4.00;;;;;;;;;;5057510;28;20076;-67
2023/05/06 07:33:59;;;;;;;18.42;5.15;;;;;;;;;;5071948;28;20395;-67
2023/05/06 07:36:26;;;;;;;18.23;4.72;;;;;;;;;;5055309;28;20052;-67
2023/05/06 07:38:52;;;;;;;8.90;4.10;;;;;;;;;;5051397;28;20099;-67
2023/05/06 07:41:18;;;;;;;10.52;3.95;;;;;;;;;;5051773;28;20211;-67
2023/05/06 07:43:45;;;;;;;16.92;4.70;;;;;;;;;;5051704;28;20055;-66
2023/05/06 07:46:11;;;;;;;14.60;4.85;;;;;;;;;;5065209;28;20044;-66
2023/05/06 07:48:38;;;;;;;19.85;4.57;;;;;;;;;;5054072;28;20450;-66
2023/05/06 07:51:04;;;;;;;14.30;4.30;;;;;;;;;;5055041;28;20044;-67
2023/05/06 07:53:31;;;;;;;8.48;3.53;;;;;;;;;;5054342;28;20132;-67
2023/05/06 07:56:00;;;;;;;9.73;3.85;;;;;;;;;;5049971;28;20041;-67
2023/05/06 07:58:27;;;;;;;12.05;4.00;;;;;;;;;;5058195;28;20079;-67
2023/05/06 08:00:54;;;;;;;10.80;3.60;;;;;;;;;;5053692;28;20389;-67
2023/05/06 08:03:20;;;;;;;7.75;3.42;;;;;;;;;;5053752;28;20044;-67
2023/05/06 08:05:48;;;;;;;8.73;2.75;;;;;;;;;;5053240;28;20484;-67
2023/05/06 08:08:15;;;;;;;5.30;2.40;;;;;;;;;;5059977;28;20056;-67
2023/05/06 08:10:44;;;;;;;7.93;2.40;;;;;;;;;;5055103;28;20040;-67
2023/05/06 08:13:11;;;;;;;6.18;2.00;;;;;;;;;;5074966;28;20055;-67
2023/05/06 08:15:37;;;;;;;10.50;2.30;;;;;;;;;;5069472;28;20060;-66
2023/05/06 08:18:04;;;;;;;5.00;1.90;;;;;;;;;;5066868;28;20083;-67
2023/05/06 08:20:47;;;;;;;2.80;1.27;;;;;;;;;;5063912;28;20534;-68
2023/05/06 08:23:14;;;;;;;4.28;1.70;;;;;;;;;;5062355;28;20045;-68
2023/05/06 08:25:40;;;;;;;6.38;2.03;;;;;;;;;;5074492;28;20044;-68
2023/05/06 08:28:07;;;;;;;3.70;1.77;;;;;;;;;;5065256;28;20044;-69
2023/05/06 08:30:33;;;;;;;4.00;1.30;;;;;;;;;;5052062;28;20049;-68
2023/05/06 08:33:00;;;;;;;14.82;2.10;;;;;;;;;;5061819;28;20048;-71
2023/05/06 08:35:27;;;;;;;2.58;1.05;;;;;;;;;;5071888;28;20083;-70
2023/05/06 08:37:53;;;;;;;20.10;1.85;;;;;;;;;;5054817;28;20049;-70
2023/05/06 08:40:20;;;;;;;7.07;1.10;;;;;;;;;;5054848;28;20059;-70
2023/05/06 08:42:48;;;;;;;8.27;1.20;;;;;;;;;;5052442;28;20098;-70
2023/05/06 08:45:17;;;;;;;12.43;1.20;;;;;;;;;;5055132;28;20056;-71
2023/05/06 08:47:45;;;;;;;23.50;2.13;;;;;;;;;;5061211;28;20067;-73
2023/05/06 08:50:12;;;;;;;;;;;;;;;;;;5057629;28;20049;-74
2023/05/06 08:52:38;;;;;;;22.33;2.30;;;;;;;;;;5054388;28;19927;-74
2023/05/06 08:55:06;;;;;;;26.10;2.28;;;;;;;;;;5059139;28;20155;-70
2023/05/06 08:57:33;;;;;;;8.50;1.23;;;;;;;;;;5054758;28;20067;-73
2023/05/06 08:59:59;;;;;;;8.25;0.90;;;;;;;;;;5053434;28;20056;-73
2023/05/06 09:02:26;;;;;;;4.88;0.95;;;;;;;;;;5069361;28;20052;-71
2023/05/06 09:04:53;;;;;;;16.67;1.23;;;;;;;;;;5072351;28;20102;-73
2023/05/06 09:07:20;;;;;;;2.30;0.50;;;;;;;;;;5063577;28;20274;-73
2023/05/06 09:09:47;;;;;;;1.30;0.60;;;;;;;;;;5066879;28;20462;-73
2023/05/06 09:12:13;;;;;;;0.95;0.60;;;;;;;;;;5060718;28;20041;-71
2023/05/06 09:14:40;;;;;;;1.08;0.45;;;;;;;;;;5059312;28;20049;-73
2023/05/06 09:17:26;;;;;;;4.95;0.98;;;;;;;;;;5054970;28;20056;-71
2023/05/06 09:19:55;;;;;;;0.57;0.52;;;;;;;;;;5058839;28;20057;-71
2023/05/06 09:22:23;;;;;;;12.73;1.05;;;;;;;;;;5055205;28;20053;-73
2023/05/06 09:24:55;;;;;;;10.07;1.02;;;;;;;;;;5040774;28;20041;-73
2023/05/06 09:27:23;;;;;;;1.77;0.45;;;;;;;;;;5049763;28;20128;-72
2023/05/06 09:30:04;;;;;;;3.85;0.65;;;;;;;;;;5057976;28;20049;-72
2023/05/06 09:32:30;;;;;;;5.30;0.90;;;;;;;;;;5038120;28;20045;-72
2023/05/06 09:34:57;;;;;;;1.15;0.30;;;;;;;;;;5057082;28;20049;-73
2023/05/06 09:37:25;;;;;;;0.73;0.50;;;;;;;;;;5058891;28;20049;-76
2023/05/06 09:39:55;;;;;;;3.10;1.08;;;;;;;;;;5052419;28;20044;-74
2023/05/06 09:42:23;;;;;;;0.52;0.30;;;;;;;;;;5055805;28;20076;-75
2023/05/06 09:44:50;;;;;;;2.13;0.30;;;;;;;;;;5048805;28;20049;-75
2023/05/06 09:47:17;;;;;;;0.35;0.20;;;;;;;;;;5050801;28;20140;-75
2023/05/06 09:49:44;;;;;;;0.55;0.40;;;;;;;;;;5058345;28;20052;-76
2023/05/06 09:52:10;;;;;;;1.50;0.60;;;;;;;;;;5064404;28;20123;-75
2023/05/06 09:54:37;;;;;;;1.75;0.25;;;;;;;;;;5048925;28;20053;-74
2023/05/06 09:57:04;;;;;;;0.37;0.33;;;;;;;;;;5067882;28;20053;-76
2023/05/06 09:59:31;;;;;;;1.30;0.40;;;;;;;;;;5070845;28;20044;-77
2023/05/06 10:01:58;;;;;;;1.70;0.40;;;;;;;;;;5030281;28;1168484;-76
2023/05/06 10:04:25;;;;;;;0.40;0.40;;;;;;;;;;5072943;28;20053;-77
2023/05/06 10:06:55;;;;;;;2.80;0.45;;;;;;;;;;5063010;28;20407;-77
2023/05/06 10:09:22;;;;;;;1.25;0.47;;;;;;;;;;5051248;28;20041;-77
2023/05/06 10:11:49;;;;;;;;;;;;;;;;;;5053002;28;20381;-76
2023/05/06 10:14:16;;;;;;;1.07;0.30;;;;;;;;;;5055260;28;19921;-78
2023/05/06 10:16:43;;;;;;;3.53;0.40;;;;;;;;;;5071081;28;20062;-77
2023/05/06 10:19:10;;;;;;;2.35;0.25;;;;;;;;;;5072469;28;20048;-80
2023/05/06 10:21:38;;;;;;;0.90;0.40;;;;;;;;;;5069784;28;20067;-79
2023/05/06 10:24:06;;;;;;;1.75;0.30;;;;;;;;;;5060600;28;20139;-80
2023/05/06 10:26:32;;;;;;;;;;;;;;;;;;5058693;28;20527;-81
2023/05/06 10:29:00;;;;;;;0.20;0.20;;;;;;;;;;5056400;28;19929;-79
2023/05/06 10:31:26;;;;;;;;;;;;;;;;;;5063855;28;20486;-77
2023/05/06 10:33:53;;;;;;;0.22;0.20;;;;;;;;;;5066287;28;20019;-77
2023/05/06 10:36:24;;;;;;;0.55;0.20;;;;;;;;;;5072358;28;20079;-77
2023/05/06 10:38:55;;;;;;;0.73;0.20;;;;;;;;;;5068076;28;20541;-77
2023/05/06 10:41:22;;;;;;;3.55;0.40;;;;;;;;;;5062355;28;20080;-77
2023/05/06 10:43:55;;;;;;;6.40;0.52;;;;;;;;;;5062336;28;20060;-77
2023/05/06 10:46:22;;;;;;;2.25;0.30;;;;;;;;;;5044894;28;20045;-76
2023/05/06 10:49:09;;;;;;;1.17;0.20;;;;;;;;;;5064224;28;20044;-76
2023/05/06 10:51:36;;;;;;;0.20;0.20;;;;;;;;;;5064484;28;20044;-75
2023/05/06 10:54:09;;;;;;;0.10;0.10;;;;;;;;;;5072482;28;20542;-75
2023/05/06 10:56:37;;;;;;;3.20;0.30;;;;;;;;;;5062464;28;20040;-75
2023/05/06 10:59:06;;;;;;;;;;;;;;;;;;5071865;28;20123;-75
2023/05/06 11:01:34;;;;;;;1.10;0.20;;;;;;;;;;5063093;28;20002;-75
2023/05/06 11:04:08;;;;;;;0.85;0.30;;;;;;;;;;5070884;28;20045;-75
2023/05/06 11:06:40;;;;;;;0.43;0.20;;;;;;;;;;5058582;28;20118;-75
2023/05/06 11:09:20;;;;;;;0.57;0.10;;;;;;;;;;5061733;28;20510;-76
2023/05/06 11:11:59;;;;;;;0.75;0.20;;;;;;;;;;5049597;28;20131;-78
2023/05/06 11:14:27;;;;;;;1.50;0.20;;;;;;;;;;5064740;28;20050;-78
2023/05/06 11:16:55;;;;;;;2.67;0.40;;;;;;;;;;5067327;28;20055;-74
2023/05/06 11:19:22;;;;;;;0.45;0.30;;;;;;;;;;5071626;28;20052;-76
2023/05/06 11:21:49;;;;;;;0.40;0.30;;;;;;;;;;5071469;28;20048;-74
2023/05/06 11:24:23;;;;;;;1.52;0.50;;;;;;;;;;5071491;28;20048;-74
2023/05/06 11:26:50;;;;;;;0.20;0.20;;;;;;;;;;5071564;28;20127;-75
2023/05/06 11:29:17;;;;;;;0.60;0.40;;;;;;;;;;5070192;28;20373;-74
2023/05/06 11:31:44;;;;;;;1.17;0.50;;;;;;;;;;5071157;28;20054;-74
2023/05/06 11:34:11;;;;;;;1.50;0.45;;;;;;;;;;5071310;28;20048;-75
2023/05/06 11:36:45;;;;;;;0.43;0.28;;;;;;;;;;5071032;28;20496;-76
2023/05/06 11:39:11;;;;;;;0.30;0.30;;;;;;;;;;5069855;28;20050;-76
2023/05/06 11:41:39;;;;;;;0.75;0.20;;;;;;;;;;5071019;28;20526;-75
2023/05/06 11:44:06;;;;;;;;;;;;;;;;;;5071335;28;20145;-76
2023/05/06 11:46:34;;;;;;;0.68;0.40;;;;;;;;;;5070964;28;19924;-75
2023/05/06 11:49:00;;;;;;;2.40;0.50;;;;;;;;;;5070918;28;20067;-75
2023/05/06 11:51:27;;;;;;;2.58;0.57;;;;;;;;;;5063728;28;20564;-76
2023/05/06 11:54:03;;;;;;;1.52;0.77;;;;;;;;;;5056616;28;20408;-77
2023/05/06 11:56:30;;;;;;;0.73;0.73;;;;;;;;;;5071086;28;20052;-76
2023/05/06 11:58:56;;;;;;;1.48;0.90;;;;;;;;;;5070814;28;20049;-75
2023/05/06 12:01:23;;;;;;;2.47;0.80;;;;;;;;;;5070780;28;20082;-74
2023/05/06 12:03:53;;;;;;;0.70;0.70;;;;;;;;;;5070751;28;20051;-75
2023/05/06 12:06:31;;;;;;;0.70;0.57;;;;;;;;;;5070957;28;20817;-74
2023/05/06 12:08:57;;;;;;;;;;;;;;;;;;5071705;28;20138;-75
2023/05/06 12:11:24;;;;;;;3.55;0.93;;;;;;;;;;5064378;28;19924;-75
2023/05/06 12:13:50;;;;;;;1.90;0.90;;;;;;;;;;5056550;28;20084;-76
2023/05/06 12:16:17;;;;;;;2.83;1.40;;;;;;;;;;5049696;28;20055;-76
2023/05/06 12:18:43;;;;;;;4.57;1.52;;;;;;;;;;5066748;28;20053;-75
2023/05/06 12:21:10;;;;;;;2.90;1.48;;;;;;;;;;5064981;28;20073;-75
2023/05/06 12:23:48;;;;;;;3.17;1.70;;;;;;;;;;5050760;28;20155;-76
2023/05/06 12:26:15;;;;;;;3.38;1.90;;;;;;;;;;5058555;28;20098;-77
2023/05/06 12:28:42;;;;;;;3.53;2.10;;;;;;;;;;5070560;28;20080;-76
2023/05/06 12:31:18;;;;;;;4.40;2.30;;;;;;;;;;5070587;28;20048;-76
2023/05/06 12:33:47;;;;;;;3.97;2.30;;;;;;;;;;5070577;28;20518;-77
2023/05/06 12:36:14;;;;;;;4.03;2.75;;;;;;;;;;5070716;28;20044;-76
2023/05/06 12:38:51;;;;;;;5.70;3.00;;;;;;;;;;5071088;28;20054;-77
2023/05/06 12:41:20;;;;;;;4.72;2.85;;;;;;;;;;5052595;28;20095;-77
2023/05/06 12:43:47;;;;;;;4.45;2.72;;;;;;;;;;5063830;28;20083;-77
2023/05/06 12:46:15;;;;;;;4.57;2.90;;;;;;;;;;5065655;28;20495;-76
2023/05/06 12:49:00;;;;;;;6.53;3.42;;;;;;;;;;5050789;28;20088;-77
2023/05/06 12:51:27;;;;;;;4.53;2.90;;;;;;;;;;5074084;28;20136;-77
2023/05/06 12:53:54;;;;;;;4.45;3.08;;;;;;;;;;5067328;28;20045;-77
2023/05/06 12:56:21;;;;;;;4.25;3.10;;;;;;;;;;5064079;28;20080;-77
2023/05/06 12:58:54;;;;;;;4.53;2.60;;;;;;;;;;5060925;28;20072;-77
2023/05/06 13:01:21;;;;;;;7.53;3.28;;;;;;;;;;5065762;28;20057;-76
2023/05/06 13:03:47;;;;;;;3.78;2.63;;;;;;;;;;5053250;28;20134;-77
2023/05/06 13:06:14;;;;;;;3.53;3.20;;;;;;;;;;5053667;28;20059;-76
2023/05/06 13:08:41;;;;;;;3.45;2.10;;;;;;;;;;5053986;28;20179;-77
2023/05/06 13:11:07;;;;;;;2.47;1.70;;;;;;;;;;5053749;28;20504;-77
2023/05/06 13:13:34;;;;;;;2.42;1.63;;;;;;;;;;5058878;28;20135;-76
2023/05/06 13:16:00;;;;;;;2.60;1.50;;;;;;;;;;5062639;28;20094;-76
2023/05/06 13:18:28;;;;;;;3.38;1.50;;;;;;;;;;5067577;28;20048;-75
2023/05/06 13:20:54;;;;;;;1.27;1.17;;;;;;;;;;5072123;28;20079;-75
2023/05/06 13:23:21;;;;;;;0.80;0.75;;;;;;;;;;5072937;28;20506;-75
2023/05/06 13:25:47;;;;;;;1.27;0.80;;;;;;;;;;5059389;28;20064;-75
2023/05/06 13:28:30;;;;;;;1.83;1.23;;;;;;;;;;5052835;28;20040;-75
2023/05/06 13:30:57;;;;;;;2.17;1.60;;;;;;;;;;5052629;28;20045;-74
2023/05/06 13:33:24;;;;;;;2.40;1.58;;;;;;;;;;5063699;28;20404;-75
2023/05/06 13:35:51;;;;;;;1.90;1.80;;;;;;;;;;5052937;28;20049;-75
2023/05/06 13:38:18;;;;;;;1.67;1.45;;;;;;;;;;5051957;28;20076;-76
2023/05/06 13:40:45;;;;;;;2.58;1.83;;;;;;;;;;5053034;28;20461;-75
2023/05/06 13:43:11;;;;;;;3.00;2.47;;;;;;;;;;5053019;28;20102;-75
2023/05/06 13:45:38;;;;;;;3.22;2.63;;;;;;;;;;5052860;28;20056;-75
2023/05/06 13:48:05;;;;;;;2.60;2.40;;;;;;;;;;5052601;28;20504;-74
2023/05/06 13:50:32;;;;;;;4.38;2.55;;;;;;;;;;5053048;28;20052;-74
2023/05/06 13:52:59;;;;;;;3.78;2.67;;;;;;;;;;5070865;28;20507;-75
2023/05/06 13:55:25;;;;;;;5.28;2.65;;;;;;;;;;5057603;28;20583;-76
2023/05/06 13:57:51;;;;;;;2.88;2.60;;;;;;;;;;5053024;28;20408;-76
2023/05/06 14:00:18;;;;;;;2.75;2.53;;;;;;;;;;5053688;28;20053;-75
2023/05/06 14:02:44;;;;;;;3.25;2.95;;;;;;;;;;5071427;28;20052;-77
2023/05/06 14:05:11;;;;;;;2.97;2.67;;;;;;;;;;5059460;28;20094;-77
2023/05/06 14:07:38;;;;;;;3.63;3.33;;;;;;;;;;5059794;28;20061;-75
2023/05/06 14:10:06;;;;;;;2.95;2.65;;;;;;;;;;5069813;28;20033;-79
2023/05/06 14:12:32;;;;;;;4.38;3.35;;;;;;;;;;5060303;28;20536;-76
2023/05/06 14:14:59;;;;;;;4.70;3.43;;;;;;;;;;5057724;28;20078;-80
2023/05/06 14:17:26;;;;;;;5.60;3.87;;;;;;;;;;5059177;28;20102;-80
2023/05/06 14:19:53;;;;;;;6.03;4.45;;;;;;;;;;5072519;28;20117;-75
2023/05/06 14:22:19;;;;;;;6.25;5.07;;;;;;;;;;5072243;28;20040;-74
2023/05/06 14:24:46;;;;;;;6.65;4.35;;;;;;;;;;5057341;28;20055;-74
2023/05/06 14:27:12;;;;;;;5.85;4.70;;;;;;;;;;5048637;28;20531;-75
2023/05/06 14:29:41;;;;;;;4.68;4.22;;;;;;;;;;5060184;28;20399;-75
2023/05/06 14:32:08;;;;;;;5.78;4.10;;;;;;;;;;5072412;28;20122;-75
2023/05/06 14:34:38;;;;;;;4.57;3.72;;;;;;;;;;5071087;28;20048;-75
2023/05/06 14:37:04;;;;;;;4.85;4.25;;;;;;;;;;5072318;28;20041;-74
2023/05/06 14:39:31;;;;;;;5.03;4.45;;;;;;;;;;5072070;28;20393;-75